Time;durP1;ratioP1;P1;durP2;ratioP2;P2;SDS_P1;SDS_P2;PMS_P1;PMS_P2;Temp;Humidity;BMP_temperature;BMP_pressure;BME280_temperature;BME280_humidity;BME280_pressure;Samples;Min_cycle;Max_cycle;Signal;HPM_P1;HPM_P2
2022/01/16 00:04:42;;;;;;;5.00;3.70;;;;;;;23.73;30.55;95883.00;7298539;19;137506;-50
2022/01/16 00:07:08;;;;;;;4.03;3.60;;;;;;;23.72;30.24;95861.97;7299250;19;137973;-50
2022/01/16 00:09:35;;;;;;;4.30;3.90;;;;;;;23.70;30.24;95843.56;7299454;19;137694;-50
2022/01/16 00:12:06;;;;;;;4.70;4.30;;;;;;;23.70;30.40;95854.25;7285684;19;139008;-50
2022/01/16 00:14:33;;;;;;;3.90;3.60;;;;;;;23.69;30.13;95874.00;7298220;19;138145;-50
2022/01/16 00:16:59;;;;;;;4.50;4.10;;;;;;;23.68;30.32;95889.22;7295623;19;138275;-50
2022/01/16 00:19:25;;;;;;;4.27;3.87;;;;;;;23.68;30.83;95899.91;7298573;19;137965;-51
2022/01/16 00:21:51;;;;;;;4.23;3.93;;;;;;;23.68;30.47;95918.56;7286774;19;137035;-50
2022/01/16 00:24:17;;;;;;;4.40;4.00;;;;;;;23.67;30.66;95927.63;7298258;19;137381;-50
2022/01/16 00:26:42;;;;;;;4.50;4.10;;;;;;;23.66;30.40;95947.38;7297194;19;138097;-50
2022/01/16 00:29:09;;;;;;;4.40;4.00;;;;;;;23.66;30.82;95955.41;7298749;19;136821;-50
2022/01/16 00:31:37;;;;;;;3.60;3.30;;;;;;;23.67;29.99;96006.88;7297651;19;137754;-51
2022/01/16 00:34:04;;;;;;;4.10;3.80;;;;;;;23.66;30.29;95963.41;7283281;19;137325;-48
2022/01/16 00:36:30;;;;;;;4.33;3.93;;;;;;;23.66;30.19;95872.69;7295832;19;138101;-49
2022/01/16 00:38:57;;;;;;;3.40;3.10;;;;;;;23.69;30.40;95900.69;7298462;19;137798;-49
2022/01/16 00:41:24;;;;;;;4.13;3.83;;;;;;;23.69;30.57;95938.84;7297567;19;137045;-48
2022/01/16 00:43:52;;;;;;;4.70;3.80;;;;;;;23.69;30.72;95825.97;7286812;19;137156;-49
2022/01/16 00:46:19;;;;;;;4.13;3.73;;;;;;;23.66;30.51;95789.19;7297123;19;138744;-49
2022/01/16 00:48:44;;;;;;;4.57;4.17;;;;;;;23.65;30.33;95841.75;7296210;19;138087;-49
2022/01/16 00:51:11;;;;;;;4.70;3.63;;;;;;;23.66;31.05;95760.63;7297977;19;136661;-50
2022/01/16 00:53:39;;;;;;;4.20;3.70;;;;;;;23.68;31.24;95753.16;7296698;19;137534;-49
2022/01/16 00:56:06;;;;;;;4.97;3.57;;;;;;;23.67;31.37;95780.91;7280575;19;137227;-50
2022/01/16 00:58:31;;;;;;;4.30;4.00;;;;;;;23.70;31.34;95758.19;7298206;19;137855;-50
2022/01/16 01:00:57;;;;;;;4.63;4.23;;;;;;;23.70;31.31;95784.88;7298056;19;137779;-50
2022/01/16 01:03:23;;;;;;;4.33;4.03;;;;;;;23.70;30.61;95838.25;7298642;19;137998;-49
2022/01/16 01:05:48;;;;;;;5.50;5.00;;;;;;;23.69;30.86;95858.78;7291238;19;138177;-49
2022/01/16 01:08:14;;;;;;;6.70;4.57;;;;;;;23.68;31.20;95833.19;7292831;19;137619;-49
2022/01/16 01:10:42;;;;;;;4.83;4.43;;;;;;;23.68;31.07;95825.19;7298150;19;137612;-50
2022/01/16 01:13:12;;;;;;;4.83;4.33;;;;;;;23.67;30.92;95865.47;7296637;19;137727;-50
2022/01/16 01:15:44;;;;;;;4.77;4.37;;;;;;;23.68;30.92;95861.72;7296133;19;137497;-49
2022/01/16 01:18:11;;;;;;;4.20;3.80;;;;;;;23.67;30.51;95834.25;7282139;19;136944;-49
2022/01/16 01:20:40;;;;;;;4.40;4.00;;;;;;;23.66;30.27;95846.00;7297144;19;136913;-49
2022/01/16 01:23:05;;;;;;;5.70;5.20;;;;;;;23.68;30.44;95843.03;7297209;19;138566;-52
2022/01/16 01:25:31;;;;;;;5.27;4.87;;;;;;;23.65;30.61;95836.41;7296068;19;137361;-49
2022/01/16 01:27:56;;;;;;;4.97;4.50;;;;;;;23.66;30.48;95848.66;7283346;19;137192;-49
2022/01/16 01:30:24;;;;;;;5.23;4.80;;;;;;;23.65;30.55;95852.44;7296094;19;137448;-49
2022/01/16 01:32:51;;;;;;;5.40;4.90;;;;;;;23.66;29.89;95843.34;7296937;19;138746;-50
2022/01/16 01:35:18;;;;;;;4.93;4.43;;;;;;;23.66;30.17;95854.00;7297208;19;138167;-50
2022/01/16 01:37:44;;;;;;;4.13;3.83;;;;;;;23.66;30.35;95869.22;7293738;19;137020;-50
2022/01/16 01:40:14;;;;;;;5.03;4.63;;;;;;;23.66;30.49;95859.34;7281676;19;137446;-50
2022/01/16 01:42:47;;;;;;;4.47;4.10;;;;;;;23.67;30.57;95884.16;7294435;19;137422;-50
2022/01/16 01:51:18;;;;;;;5.00;4.60;;;;;;;23.68;29.91;95915.91;7282510;19;136729;-50
2022/01/16 01:53:44;;;;;;;5.00;4.60;;;;;;;23.65;30.26;95889.78;7295072;19;137084;-50
2022/01/16 01:56:12;;;;;;;6.87;4.70;;;;;;;23.68;30.35;95889.22;7292691;19;137346;-50
2022/01/16 01:58:38;;;;;;;5.80;5.30;;;;;;;23.69;29.83;95896.16;7295157;19;136989;-50
2022/01/16 02:01:04;;;;;;;5.30;4.80;;;;;;;23.67;29.88;95898.28;7282351;19;137976;-50
2022/01/16 02:06:14;;;;;;;5.30;4.80;;;;;;;23.68;29.82;95889.22;7294679;19;136856;-50
2022/01/16 02:08:42;;;;;;;5.40;5.00;;;;;;;23.66;29.59;95907.38;7295855;19;137589;-50
2022/01/16 02:11:10;;;;;;;5.00;4.60;;;;;;;23.67;29.14;95914.28;7295102;19;136646;-50
2022/01/16 02:13:47;;;;;;;5.03;4.53;;;;;;;23.66;29.14;95911.91;7281934;19;138321;-50
2022/01/16 02:31:12;;;;;;;5.13;4.63;;;;;;;23.60;28.52;95907.75;7295187;19;137815;-50
2022/01/16 02:33:21;;;;;;;5.20;4.70;;;;;;;23.59;29.16;95904.28;7292580;19;137377;-50
2022/01/16 02:35:45;;;;;;;5.27;4.67;;;;;;;23.57;29.02;95901.09;7280734;19;137362;-50
2022/01/16 02:38:12;;;;;;;5.27;4.77;;;;;;;23.57;29.01;95884.31;7295263;19;138383;-50
2022/01/16 02:40:41;;;;;;;4.63;4.33;;;;;;;23.56;28.71;95883.50;7293314;19;137046;-50
2022/01/16 02:43:07;;;;;;;4.40;4.07;;;;;;;23.57;28.57;95881.63;7294614;19;138068;-50
2022/01/16 02:45:36;;;;;;;4.60;4.20;;;;;;;23.56;28.07;95894.16;7280593;19;136885;-50
2022/01/16 02:48:07;;;;;;;5.07;4.60;;;;;;;23.56;28.18;95896.03;7293548;19;137241;-50
2022/01/16 02:50:36;;;;;;;4.97;4.57;;;;;;;23.56;28.09;95885.38;7294432;19;138011;-50
2022/01/16 02:53:08;;;;;;;4.43;3.90;;;;;;;23.56;27.87;95894.16;7294651;19;136800;-50
2022/01/16 02:55:34;;;;;;;4.50;4.10;;;;;;;23.55;27.72;95881.09;7289767;19;137382;-50
2022/01/16 02:57:59;;;;;;;4.70;4.30;;;;;;;23.55;28.39;95876.56;7281048;19;139504;-50
2022/01/16 03:00:25;;;;;;;4.73;4.20;;;;;;;23.54;27.90;95869.66;7292402;19;137391;-50
2022/01/16 03:02:51;;;;;;;5.50;3.73;;;;;;;23.55;28.37;95879.22;7293495;19;136937;-50
2022/01/16 03:05:17;;;;;;;4.10;3.80;;;;;;;23.56;28.02;95880.81;7294032;19;137300;-50
2022/01/16 03:07:44;;;;;;;4.83;4.43;;;;;;;23.56;27.79;95883.50;7280498;19;138161;-50
2022/01/16 03:12:50;;;;;;;4.50;4.10;;;;;;;23.61;28.09;95877.31;7293997;19;137402;-50
2022/01/16 03:15:17;;;;;;;4.17;3.87;;;;;;;23.60;28.22;95881.84;7294162;19;137617;-50
2022/01/16 03:23:07;;;;;;;5.33;4.17;;;;;;;23.61;28.08;95882.66;7301491;19;136793;-50
2022/01/16 03:25:33;;;;;;;4.40;4.00;;;;;;;23.60;27.61;95881.84;7299427;19;137825;-50
2022/01/16 03:27:58;;;;;;;6.33;4.40;;;;;;;23.59;28.05;95876.81;7299942;19;137569;-50
2022/01/16 03:30:24;;;;;;;4.37;4.00;;;;;;;23.57;27.77;95876.31;7286427;19;136967;-50
2022/01/16 03:32:49;;;;;;;4.37;3.97;;;;;;;23.59;27.57;95874.13;7299498;19;139315;-50
2022/01/16 03:35:15;;;;;;;4.90;4.50;;;;;;;23.60;27.49;95878.41;7299989;19;137236;-50
2022/01/16 03:37:40;;;;;;;4.43;4.13;;;;;;;23.60;27.92;95873.06;7297970;19;137883;-50
2022/01/16 03:40:10;;;;;;;4.40;4.00;;;;;;;23.63;27.17;95886.59;7285894;19;137527;-50
2022/01/16 03:42:37;;;;;;;4.27;3.97;;;;;;;23.61;27.74;95879.97;7299432;19;137015;-50
2022/01/16 03:45:05;;;;;;;4.37;4.07;;;;;;;23.61;27.23;95891.44;7297248;19;139421;-50
2022/01/16 03:47:30;;;;;;;4.20;3.90;;;;;;;23.62;27.71;95890.34;7299046;19;138153;-50
2022/01/16 03:49:56;;;;;;;5.13;4.70;;;;;;;23.63;27.08;95875.94;7300184;19;137676;-50
2022/01/16 03:52:22;;;;;;;4.40;4.10;;;;;;;23.63;27.76;95891.16;7286586;19;138075;-50
2022/01/16 03:54:47;;;;;;;4.57;4.17;;;;;;;23.64;27.54;95896.19;7297031;19;137778;-50
2022/01/16 03:57:13;;;;;;;4.70;4.30;;;;;;;23.65;27.33;95897.00;7298045;19;138168;-50
2022/01/16 03:59:38;;;;;;;5.83;5.23;;;;;;;23.66;27.63;95894.03;7299503;19;137397;-50
2022/01/16 04:02:04;;;;;;;4.57;4.20;;;;;;;23.64;27.00;95898.88;7284526;19;138076;-50
2022/01/16 04:04:30;;;;;;;5.10;4.60;;;;;;;23.65;27.34;95900.44;7298632;19;137929;-50
2022/01/16 04:06:56;;;;;;;4.63;4.23;;;;;;;23.62;27.50;95898.38;7298171;19;137358;-50
2022/01/16 04:09:22;;;;;;;5.03;4.60;;;;;;;23.64;26.95;95898.88;7297908;19;137194;-50
2022/01/16 04:11:52;;;;;;;6.00;4.70;;;;;;;23.65;27.49;95905.78;7298747;19;136831;-50
2022/01/16 04:15:31;;;;;;;5.10;4.70;;;;;;;23.64;27.02;95914.88;7284520;19;138100;-50
2022/01/16 04:17:08;;;;;;;5.50;5.00;;;;;;;23.65;27.04;95913.78;7297514;19;137984;-50
2022/01/16 04:19:35;;;;;;;6.17;5.10;;;;;;;23.65;27.21;95907.66;7299192;19;137291;-50
2022/01/16 04:22:00;;;;;;;4.73;4.33;;;;;;;23.65;26.96;95913.00;7298248;19;137121;-50
2022/01/16 04:24:26;;;;;;;5.00;4.60;;;;;;;23.65;26.99;95916.47;7284036;19;137662;-50
2022/01/16 04:26:52;;;;;;;5.50;4.97;;;;;;;23.66;26.70;95920.72;7298885;19;137620;-50
2022/01/16 04:29:17;;;;;;;5.07;4.67;;;;;;;23.66;26.84;95918.03;7297532;19;136937;-50
2022/01/16 04:31:43;;;;;;;5.50;5.07;;;;;;;23.69;27.30;95928.16;7297743;19;137154;-50
2022/01/16 04:34:09;;;;;;;5.33;4.93;;;;;;;23.69;27.27;95925.50;7298371;19;137521;-50
2022/01/16 04:36:34;;;;;;;4.90;4.50;;;;;;;23.68;27.18;95937.25;7283009;19;137305;-50
2022/01/16 04:39:00;;;;;;;4.87;4.40;;;;;;;23.69;26.74;95932.72;7297046;19;136841;-51
2022/01/16 04:44:10;;;;;;;5.50;5.07;;;;;;;23.72;26.89;95926.00;7299016;19;138428;-50
2022/01/16 04:46:35;;;;;;;5.40;4.90;;;;;;;23.72;27.02;95934.00;7283194;19;137491;-50
2022/01/16 04:49:03;;;;;;;5.90;5.50;;;;;;;23.70;26.73;95935.09;7298440;19;137478;-50
2022/01/16 04:51:31;;;;;;;5.47;4.97;;;;;;;23.70;27.19;95928.97;7297534;19;136809;-50
2022/01/16 04:53:57;;;;;;;5.67;5.17;;;;;;;23.70;26.47;95913.75;7295146;19;138014;-50
2022/01/16 04:56:22;;;;;;;5.80;5.33;;;;;;;23.71;26.98;95917.19;7294614;19;138306;-50
2022/01/16 04:58:49;;;;;;;5.70;5.20;;;;;;;23.71;26.40;95914.53;7283595;19;136735;-50
2022/01/16 05:01:15;;;;;;;5.33;4.93;;;;;;;23.74;26.37;95921.97;7298094;19;137762;-50
2022/01/16 05:03:41;;;;;;;5.83;5.43;;;;;;;23.76;27.08;95924.34;7297856;19;137138;-50
2022/01/16 05:06:07;;;;;;;9.40;7.83;;;;;;;23.75;27.38;95920.09;7297915;19;137863;-52
2022/01/16 05:08:33;;;;;;;6.33;5.73;;;;;;;23.82;27.22;95920.50;7284105;19;138305;-50
2022/01/16 05:10:59;;;;;;;6.57;5.57;;;;;;;23.82;27.27;95921.28;7296539;19;137027;-50
2022/01/16 05:16:37;;;;;;;12.57;9.53;;;;;;;23.93;28.43;95905.94;7294771;19;137959;-53
2022/01/16 05:19:13;;;;;;;17.70;9.10;;;;;;;23.77;27.87;95913.38;7285713;19;136810;-52
2022/01/16 05:21:42;;;;;;;16.77;11.47;;;;;;;23.64;28.01;95909.53;7297693;19;137035;-52
2022/01/16 05:24:10;;;;;;;11.47;10.30;;;;;;;23.49;27.84;95916.91;7297157;19;138364;-52
2022/01/16 05:26:45;;;;;;;13.60;10.93;;;;;;;23.33;28.22;95909.09;7297951;19;137760;-53
2022/01/16 05:29:12;;;;;;;13.10;10.77;;;;;;;23.32;27.76;95920.84;7297406;19;136915;-53
2022/01/16 05:31:44;;;;;;;11.40;9.93;;;;;;;23.24;27.36;95920.69;7284646;19;137496;-52
2022/01/16 05:34:11;;;;;;;10.73;8.83;;;;;;;23.08;27.64;95899.56;7297888;19;137001;-52
2022/01/16 05:36:36;;;;;;;11.23;10.23;;;;;;;23.22;27.38;95933.53;7296452;19;137774;-52
2022/01/16 05:39:02;;;;;;;11.17;10.27;;;;;;;23.20;27.41;95920.47;7294753;19;136757;-52
2022/01/16 05:41:28;;;;;;;14.10;12.93;;;;;;;23.21;27.22;95923.94;7282142;19;136910;-53
2022/01/16 05:43:53;;;;;;;18.00;16.30;;;;;;;23.22;27.71;95925.53;7294231;19;137179;-51
2022/01/16 05:46:19;;;;;;;15.60;14.10;;;;;;;23.21;27.27;95930.06;7295690;19;138060;-52
2022/01/16 05:48:44;;;;;;;14.90;13.60;;;;;;;23.24;27.62;95934.03;7297580;19;137049;-52
2022/01/16 05:51:10;;;;;;;16.90;15.40;;;;;;;23.29;27.64;95933.97;7297229;19;136785;-51
2022/01/16 05:53:37;;;;;;;19.90;18.10;;;;;;;23.23;27.26;95927.13;7281893;19;137598;-52
2022/01/16 05:56:03;;;;;;;30.93;28.47;;;;;;;23.31;27.19;95943.25;7294662;19;137769;-54
2022/01/16 05:58:29;;;;;;;46.33;42.20;;;;;;;23.24;27.46;95937.50;7293357;19;137627;-52
2022/01/16 06:00:54;;;;;;;53.97;48.93;;;;;;;23.29;27.94;95950.75;7295894;19;137950;-51
2022/01/16 06:03:21;;;;;;;56.83;51.93;;;;;;;23.17;26.65;95946.91;7255454;19;138459;-52
2022/01/16 06:05:47;;;;;;;49.20;44.73;;;;;;;23.10;26.91;95948.03;7289013;19;138942;-52
2022/01/16 06:08:14;;;;;;;41.07;37.47;;;;;;;23.15;24.77;95947.19;7291626;19;138257;-59
2022/01/16 06:10:40;;;;;;;59.43;54.17;;;;;;;23.31;25.35;95942.47;7294378;19;136898;-51
2022/01/16 06:13:06;;;;;;;65.80;59.97;;;;;;;23.44;26.28;95936.44;7293331;19;138440;-51
2022/01/16 06:15:32;;;;;;;68.13;62.17;;;;;;;23.52;27.10;95938.50;7281049;19;138595;-51
2022/01/16 06:17:58;;;;;;;67.10;61.00;;;;;;;23.58;27.22;95939.25;7294437;19;138728;-51
2022/01/16 06:20:23;;;;;;;64.83;58.97;;;;;;;23.58;27.63;95942.72;7295420;19;137649;-51
2022/01/16 06:22:49;;;;;;;65.53;59.37;;;;;;;23.62;27.62;95943.72;7292984;19;138448;-52
2022/01/16 06:25:15;;;;;;;65.20;59.40;;;;;;;23.64;27.45;95938.88;7280797;19;137455;-51
2022/01/16 06:27:41;;;;;;;61.70;56.00;;;;;;;23.64;27.89;95951.44;7294740;19;137089;-52
2022/01/16 06:30:09;;;;;;;60.50;55.20;;;;;;;23.63;27.64;95965.84;7282273;19;138165;-51
2022/01/16 06:32:36;;;;;;;65.17;59.33;;;;;;;23.61;28.15;95954.69;7287622;19;137804;-54
2022/01/16 06:35:03;;;;;;;60.30;54.93;;;;;;;23.65;28.14;95964.47;7284724;19;139939;-53
2022/01/16 06:37:28;;;;;;;59.73;54.73;;;;;;;23.62;28.16;95967.72;7272125;19;137300;-53
2022/01/16 06:39:54;;;;;;;58.40;53.10;;;;;;;23.50;28.54;95983.31;7286483;19;137659;-53
2022/01/16 06:42:19;;;;;;;41.07;37.47;;;;;;;23.21;27.29;95972.72;7288031;19;137919;-53
2022/01/16 06:44:45;;;;;;;42.67;39.07;;;;;;;22.81;27.43;95915.25;7283283;19;137934;-52
2022/01/16 06:47:10;;;;;;;38.57;35.17;;;;;;;23.24;27.36;95974.81;7274787;19;137069;-53
2022/01/16 06:49:36;;;;;;;37.20;34.00;;;;;;;23.20;27.21;95975.69;7285528;19;137159;-54
2022/01/16 06:52:02;;;;;;;33.10;30.33;;;;;;;23.13;27.19;95970.66;7284811;19;138288;-53
2022/01/16 06:54:28;;;;;;;33.53;30.63;;;;;;;23.19;26.66;95971.41;7281845;19;138017;-55
2022/01/16 06:56:53;;;;;;;31.50;28.73;;;;;;;23.23;27.03;95975.09;7286049;19;137520;-55
2022/01/16 06:59:19;;;;;;;29.97;27.10;;;;;;;23.20;26.71;95975.69;7271538;19;138632;-55
2022/01/16 07:01:44;;;;;;;30.33;27.50;;;;;;;23.20;27.29;95989.00;7287280;19;137002;-56
2022/01/16 07:04:10;;;;;;;27.53;24.93;;;;;;;23.21;27.10;95994.06;7282906;19;137846;-55
2022/01/16 07:06:35;;;;;;;25.63;23.33;;;;;;;23.20;27.30;95983.69;7286122;19;136931;-54
2022/01/16 07:09:01;;;;;;;24.73;22.63;;;;;;;23.27;26.87;95990.25;7281355;19;139336;-53
2022/01/16 07:11:26;;;;;;;26.00;23.23;;;;;;;23.30;26.63;95996.88;7288619;19;137295;-54
2022/01/16 07:13:52;;;;;;;23.43;21.57;;;;;;;23.47;26.96;96001.75;7290769;19;137241;-53
2022/01/16 07:16:17;;;;;;;24.93;22.77;;;;;;;23.44;27.29;96010.34;7290687;19;136976;-51
2022/01/16 07:18:43;;;;;;;23.83;21.63;;;;;;;23.36;27.31;96004.56;7288310;19;138972;-51
2022/01/16 07:21:13;;;;;;;21.43;19.40;;;;;;;23.24;27.84;95987.34;7276991;19;139076;-51
2022/01/16 07:23:46;;;;;;;24.27;21.93;;;;;;;23.29;27.76;96008.63;7295106;19;137989;-52
2022/01/16 07:26:15;;;;;;;22.57;20.50;;;;;;;23.37;27.62;95997.34;7294118;19;137377;-51
2022/01/16 07:28:41;;;;;;;25.60;22.80;;;;;;;23.41;27.91;96004.50;7294013;19;137093;-52
2022/01/16 07:31:06;;;;;;;22.53;20.47;;;;;;;23.47;27.41;96009.75;7284314;19;137391;-51
2022/01/16 07:33:32;;;;;;;29.97;26.83;;;;;;;23.41;29.49;95999.16;7291037;19;140526;-53
2022/01/16 07:35:57;;;;;;;26.60;24.07;;;;;;;23.51;28.73;96010.78;7293059;19;136923;-53
2022/01/16 07:38:23;;;;;;;34.00;31.00;;;;;;;23.40;28.85;96007.44;7292888;19;136880;-54
2022/01/16 07:40:48;;;;;;;29.70;26.63;;;;;;;23.34;29.30;96020.03;7292182;19;138422;-54
2022/01/16 07:43:14;;;;;;;21.80;19.80;;;;;;;23.12;27.66;96017.06;7280687;19;137760;-53
2022/01/16 07:45:40;;;;;;;18.13;16.73;;;;;;;20.80;23.82;96020.56;7289429;19;138116;-54
2022/01/16 07:48:07;;;;;;;21.20;19.50;;;;;;;20.80;23.96;96016.03;7287309;19;139133;-53
2022/01/16 07:50:33;;;;;;;17.43;16.03;;;;;;;21.08;25.49;96012.03;7290407;19;137729;-52
2022/01/16 07:52:59;;;;;;;17.70;16.20;;;;;;;21.54;25.48;96026.03;7291131;19;138014;-53
2022/01/16 07:55:26;;;;;;;15.97;14.67;;;;;;;21.78;25.23;96028.84;7274444;19;138018;-53
2022/01/16 07:57:53;;;;;;;18.07;16.57;;;;;;;21.90;24.77;96032.00;7275833;19;138528;-58
2022/01/16 08:00:20;;;;;;;17.83;16.47;;;;;;;21.86;24.95;96033.63;7280898;19;138071;-56
2022/01/16 08:02:46;;;;;;;16.70;15.17;;;;;;;21.95;24.73;96038.34;7285340;19;139284;-57
2022/01/16 08:05:12;;;;;;;17.57;15.87;;;;;;;21.93;23.95;96039.44;7279101;19;138152;-57
2022/01/16 08:07:38;;;;;;;15.43;14.30;;;;;;;21.93;24.12;96034.09;7291039;19;138080;-56
2022/01/16 08:10:03;;;;;;;16.10;14.90;;;;;;;21.88;24.66;96028.03;7288687;19;137246;-54
2022/01/16 08:12:29;;;;;;;16.23;14.73;;;;;;;21.97;25.19;96031.69;7284656;19;138166;-52
2022/01/16 08:14:55;;;;;;;15.63;14.47;;;;;;;22.06;25.59;96023.97;7286562;19;138055;-53
2022/01/16 08:17:20;;;;;;;15.67;14.37;;;;;;;22.06;25.91;96037.28;7272839;19;137515;-53
2022/01/16 08:19:46;;;;;;;14.90;13.63;;;;;;;22.09;26.32;96028.75;7287218;19;137563;-54
2022/01/16 08:22:11;;;;;;;15.20;13.90;;;;;;;22.18;24.90;96027.91;7287281;19;139085;-54
2022/01/16 08:24:37;;;;;;;14.90;13.70;;;;;;;22.19;26.06;96034.03;7286509;19;138816;-54
2022/01/16 08:27:03;;;;;;;15.47;14.23;;;;;;;22.13;25.12;96024.44;7278009;19;138126;-54
2022/01/16 08:29:28;;;;;;;14.27;13.07;;;;;;;22.36;28.76;96015.00;7291038;19;138577;-53
2022/01/16 08:31:54;;;;;;;14.50;13.20;;;;;;;22.54;30.29;96018.88;7291603;19;138572;-53
2022/01/16 08:34:20;;;;;;;14.80;13.33;;;;;;;22.59;29.59;96026.81;7279623;19;138534;-60
2022/01/16 08:36:46;;;;;;;13.77;12.67;;;;;;;22.64;30.09;96022.25;7288780;19;137953;-53
2022/01/16 08:39:13;;;;;;;13.47;12.17;;;;;;;22.77;30.02;96018.16;7272969;19;138713;-53
2022/01/16 08:41:38;;;;;;;16.47;14.93;;;;;;;22.89;32.81;96018.63;7289864;19;137511;-54
2022/01/16 08:44:07;;;;;;;18.00;16.40;;;;;;;22.87;32.58;96010.09;7281911;19;138175;-53
2022/01/16 08:46:33;;;;;;;18.73;17.13;;;;;;;22.83;31.15;96016.25;7287427;19;137948;-53
2022/01/16 08:48:59;;;;;;;19.70;18.07;;;;;;;22.75;32.89;96013.09;7277958;19;138608;-53
2022/01/16 08:51:24;;;;;;;20.47;18.57;;;;;;;22.87;33.64;96020.78;7287364;19;142183;-53
2022/01/16 08:53:50;;;;;;;23.77;21.50;;;;;;;22.92;34.72;96011.94;7282851;19;138332;-53
2022/01/16 08:56:15;;;;;;;22.23;20.53;;;;;;;22.95;34.28;96006.81;7287617;19;137587;-53
2022/01/16 08:58:41;;;;;;;26.13;24.13;;;;;;;22.99;37.73;96015.03;7286871;19;137677;-53
2022/01/16 09:01:07;;;;;;;31.00;28.30;;;;;;;23.03;38.70;96010.75;7277342;19;138167;-54
2022/01/16 09:03:33;;;;;;;34.97;31.87;;;;;;;23.07;40.38;96011.78;7283613;19;138282;-52
2022/01/16 09:05:59;;;;;;;33.03;30.20;;;;;;;23.06;41.77;96003.00;7289553;19;137886;-53
2022/01/16 09:08:25;;;;;;;37.13;33.77;;;;;;;22.98;43.06;95990.25;7289519;19;137030;-52
2022/01/16 09:10:50;;;;;;;37.17;33.83;;;;;;;23.12;41.56;96001.06;7274432;19;137666;-53
2022/01/16 09:13:16;;;;;;;35.77;32.87;;;;;;;23.13;42.19;96004.53;7283196;19;137764;-53
2022/01/16 09:15:47;;;;;;;38.50;35.20;;;;;;;23.17;42.54;95994.88;7289715;19;137359;-53
2022/01/16 09:18:14;;;;;;;40.60;37.00;;;;;;;23.19;44.28;95998.09;7287115;19;138621;-53
2022/01/16 09:20:40;;;;;;;42.00;38.47;;;;;;;23.25;43.83;95994.28;7288516;19;137862;-53
2022/01/16 09:23:07;;;;;;;43.93;40.07;;;;;;;23.26;42.18;95987.88;7268222;19;139107;-53
2022/01/16 09:25:32;;;;;;;34.00;31.20;;;;;;;23.26;38.98;95990.53;7288583;19;137708;-52
2022/01/16 09:27:58;;;;;;;35.03;32.00;;;;;;;23.15;37.91;95978.38;7288330;19;137514;-53
2022/01/16 09:30:25;;;;;;;35.93;33.00;;;;;;;23.20;37.25;95979.13;7288668;19;137780;-53
2022/01/16 09:32:51;;;;;;;38.30;35.10;;;;;;;23.20;37.07;95979.13;7269468;19;137875;-52
2022/01/16 09:35:17;;;;;;;40.73;37.13;;;;;;;23.23;37.78;95983.09;7289411;19;138140;-51
2022/01/16 09:37:43;;;;;;;43.57;39.63;;;;;;;23.29;38.76;95982.75;7289799;19;137956;-52
2022/01/16 09:40:12;;;;;;;41.90;38.30;;;;;;;23.31;38.66;95977.94;7288532;19;137486;-52
2022/01/16 09:42:37;;;;;;;40.27;36.70;;;;;;;23.31;37.96;95974.47;7284013;19;138129;-52
2022/01/16 09:45:06;;;;;;;40.30;36.60;;;;;;;23.35;38.35;95984.31;7274729;19;137096;-51
2022/01/16 09:47:32;;;;;;;39.90;36.40;;;;;;;23.28;37.82;95969.72;7288151;19;137898;-52
2022/01/16 09:49:58;;;;;;;38.03;34.60;;;;;;;23.19;37.55;95960.75;7287850;19;137406;-52
2022/01/16 09:52:23;;;;;;;38.93;35.37;;;;;;;23.14;36.98;95963.47;7289229;19;137466;-52
2022/01/16 09:54:50;;;;;;;37.73;34.20;;;;;;;23.14;37.05;95960.78;7268143;19;139443;-53
2022/01/16 09:57:16;;;;;;;34.60;31.47;;;;;;;23.13;36.11;95951.22;7287224;19;137321;-53
2022/01/16 09:59:44;;;;;;;31.00;28.20;;;;;;;23.13;35.88;95957.34;7290331;19;138946;-53
2022/01/16 10:02:09;;;;;;;30.80;28.20;;;;;;;23.14;35.49;95953.59;7288646;19;138138;-52
2022/01/16 10:04:39;;;;;;;29.40;26.57;;;;;;;23.13;35.36;95941.34;7282363;19;137472;-53
2022/01/16 10:07:08;;;;;;;28.53;25.90;;;;;;;23.13;34.50;95940.53;7273678;19;138053;-53
2022/01/16 10:09:35;;;;;;;25.97;23.90;;;;;;;23.05;34.48;95932.09;7287598;19;137510;-52
2022/01/16 10:12:02;;;;;;;26.30;23.90;;;;;;;23.06;33.81;95932.91;7287038;19;137848;-53
2022/01/16 10:14:45;;;;;;;25.40;23.10;;;;;;;23.06;33.57;95935.56;7281678;19;138508;-53
2022/01/16 10:17:22;;;;;;;24.03;21.97;;;;;;;23.11;33.38;95936.28;7273305;19;138465;-53
2022/01/16 10:20:03;;;;;;;23.43;21.40;;;;;;;23.15;32.41;95927.72;7287411;19;137396;-52
2022/01/16 10:22:50;;;;;;;21.10;19.30;;;;;;;23.13;32.27;95933.34;7286387;19;139495;-53
2022/01/16 10:25:33;;;;;;;21.20;19.30;;;;;;;23.08;32.72;95925.41;7285883;19;137563;-51
2022/01/16 10:28:02;;;;;;;20.00;18.30;;;;;;;22.97;32.25;95916.72;7273404;19;138269;-53
2022/01/16 10:30:40;;;;;;;19.83;18.10;;;;;;;23.01;33.27;95925.75;7288133;19;137601;-53
2022/01/16 10:33:13;;;;;;;19.63;17.93;;;;;;;22.97;30.47;95926.59;7281071;19;138385;-52
2022/01/16 10:35:42;;;;;;;17.90;16.50;;;;;;;22.90;33.34;95913.63;7288407;19;136940;-54
2022/01/16 10:38:15;;;;;;;18.17;16.47;;;;;;;22.76;30.19;95907.34;7285341;19;137231;-53
2022/01/16 10:40:44;;;;;;;17.07;15.63;;;;;;;22.82;30.24;95900.91;7273928;19;138949;-52
2022/01/16 10:43:13;;;;;;;17.90;16.13;;;;;;;22.77;30.21;95900.94;7277765;19;137720;-53
2022/01/16 10:45:43;;;;;;;16.50;15.20;;;;;;;22.73;30.01;95897.25;7284629;19;137860;-52
2022/01/16 10:48:11;;;;;;;15.80;14.40;;;;;;;22.69;29.21;95899.69;7285910;19;137172;-52
2022/01/16 10:50:45;;;;;;;15.70;14.50;;;;;;;22.66;27.58;95894.09;7274826;19;138094;-55
2022/01/16 10:53:16;;;;;;;15.83;14.43;;;;;;;22.32;27.42;95897.59;7281319;19;138135;-48
2022/01/16 10:55:55;;;;;;;16.77;15.13;;;;;;;22.08;26.78;95888.78;7284854;19;137564;-47
2022/01/16 10:58:25;;;;;;;16.87;15.43;;;;;;;21.99;26.38;95883.19;7286543;19;137859;-48
2022/01/16 11:00:56;;;;;;;16.83;15.13;;;;;;;21.88;26.54;95873.72;7276077;19;137420;-48
2022/01/16 11:03:23;;;;;;;17.20;15.60;;;;;;;21.85;25.99;95874.28;7279818;19;138327;-48
2022/01/16 11:05:50;;;;;;;15.73;14.27;;;;;;;21.75;25.77;95867.16;7287696;19;137104;-50
2022/01/16 11:08:18;;;;;;;15.27;14.10;;;;;;;21.58;25.07;95875.50;7287810;19;138276;-49
2022/01/16 11:10:51;;;;;;;15.87;14.60;;;;;;;21.41;24.79;95861.00;7286243;19;137552;-48
2022/01/16 11:13:19;;;;;;;16.83;15.43;;;;;;;21.37;24.68;95875.91;7269130;19;137883;-47
2022/01/16 11:15:48;;;;;;;18.07;16.20;;;;;;;21.32;24.68;95869.53;7287989;19;136968;-48
2022/01/16 11:18:15;;;;;;;17.63;16.13;;;;;;;21.47;24.38;95866.00;7284001;19;137736;-54
2022/01/16 11:20:51;;;;;;;17.97;16.43;;;;;;;21.51;24.15;95859.06;7286570;19;137527;-55
2022/01/16 11:25:58;;;;;;;19.00;17.43;;;;;;;20.00;25.09;95855.75;7283603;19;137239;-54
2022/01/16 11:28:24;;;;;;;18.73;17.13;;;;;;;19.11;25.60;95854.22;7285220;19;137495;-54
2022/01/16 11:30:55;;;;;;;18.00;16.43;;;;;;;19.12;25.36;95856.63;7286408;19;137273;-53
2022/01/16 11:33:23;;;;;;;19.93;18.23;;;;;;;19.14;26.63;95851.84;7276720;19;137103;-54
2022/01/16 11:35:55;;;;;;;17.40;15.90;;;;;;;19.68;25.99;95840.09;7278966;19;137236;-53
2022/01/16 11:38:24;;;;;;;17.63;15.97;;;;;;;19.82;25.21;95838.50;7288594;19;137365;-54
2022/01/16 11:40:50;;;;;;;16.90;15.30;;;;;;;20.42;25.56;95836.88;7291374;19;137842;-52
2022/01/16 11:43:37;;;;;;;14.73;13.43;;;;;;;21.02;26.20;95829.81;7287550;19;138251;-54
2022/01/16 11:46:18;;;;;;;14.17;13.07;;;;;;;21.48;24.90;95829.56;7281265;19;139635;-54
2022/01/16 11:48:55;;;;;;;18.17;16.67;;;;;;;21.76;24.82;95826.19;7292272;19;137370;-54
2022/01/16 11:51:32;;;;;;;16.00;14.50;;;;;;;22.00;24.74;95826.25;7291921;19;137281;-54
2022/01/16 11:53:58;;;;;;;16.20;14.80;;;;;;;22.16;25.22;95819.75;7284250;19;139852;-55
2022/01/16 11:56:41;;;;;;;19.63;17.87;;;;;;;22.30;25.32;95822.56;7276281;19;137468;-54
2022/01/16 11:59:34;;;;;;;24.10;22.00;;;;;;;22.42;25.80;95815.00;7288911;19;137437;-54
2022/01/16 12:02:03;;;;;;;26.27;23.97;;;;;;;22.51;26.17;95813.31;7290977;19;137339;-54